アンカレッジ/テッド・スティーブンス の空港の天気 - METARとTAF

テッド・スティーブンス・アンカレッジ国際空港 ( PANC / ANC ) - アメリカ アラスカ州アンカレッジ
飛行場実況気象(Metar)
観測時間07/28 16:53 AKDT (07/29 00:53 UTC)
風向・風速西北西 5m/s
視程10km以上
天気現象
少しの雲 雲底高度 670m
全天の8割程度の雲 雲底高度 1340m
全天を覆う雲 雲底高度 3350m
気温15.6℃
湿度69%
気圧1021.9hPa
METARPANC 290053Z 29009KT 10SM FEW022 BKN044 OVC110 16/10 A3018 RMK AO2 SLP219 T01560100
過去の天気等 Google飛行場航空写真 Wunderground天気予報

過去48時間のMETAR

飛行場予報(TAF)
発表時間: 7/28 15:20 AKDT (7/28 23:20 UTC)
予報対象時間: 28日16時 AKDT ~ 29日22時 AKDT
風向・風速西北西 3m/s
視程10km以上
少しの雲 雲底高度 760m
全天を覆う雲 雲底高度 1520m
PANC 282320Z 2900/3006 29006KT P6SM FEW025 OVC050